Sonic Adventure (DX): Boss Rankings

Records: Times | Rings | Scores | Races | Bosses | Freestyle
Leaders: Times | Rings | Scores | Races | Bosses | Freestyle | Overall
Rank Player Percent Points Date
1 Sonicspeedruner 98.4% 32 05-17-16
2 Gamepro011 97.1% 60 05-17-16
3 Austinf 92.8% 149 05-17-16
4 DarkPolarNight 91.8% 171 05-17-16
5 Jawzun 89.7% 214 05-17-16
6 drminus 89.5% 219 05-17-16
7 Parax 88.0% 250 05-17-16
8 ike6252 87.3% 265 05-17-16
9 Dashjump 85.1% 310 05-17-16
10 Avento128bits 84.9% 315 05-17-16
11 Coolfansonic 81.9% 377 05-17-16
12 DarkspinesSonic 81.5% 387 05-17-16
13 THC98 79.0% 438 05-17-16
14 F-Man 77.1% 477 05-17-16
15 TheRealShadnic 76.6% 489 05-17-16
16 Marth 76.0% 501 05-17-16
17 yoshifan 74.3% 536 05-17-16
18 Mariobutch 73.9% 545 05-17-16
19 PfoSonic 73.1% 562 05-17-16
20 InferSaime 72.7% 570 05-17-16
21 HyperSonic7701 70.7% 612 05-17-16
22 RPGnutter 69.9% 628 05-17-16
23 Paragod 68.4% 660 05-17-16
24 mike89 67.9% 670 05-17-16
25 frankoredstrato 67.7% 674 05-17-16
26 Groudon199 63.6% 760 05-17-16
27 sonicam 63.5% 762 05-17-16
28 SadisticMystic 63.3% 767 05-17-16
29 Stefan 61.7% 801 05-17-16
30 Diamond 60.5% 825 05-17-16
31 Combo 58.1% 876 05-17-16
32 bertin 57.7% 884 05-17-16
33 xXMegaManXx 55.9% 921 05-17-16
34 SkyLights 55.1% 938 05-17-16
35 Arch 49.4% 1058 05-17-16
35 francisco 49.4% 1058 05-17-16
37 Fr3nZy 49.3% 1060 05-17-16
38 OmegaDJ 47.4% 1100 05-17-16
39 Andrea Ritsu 47.1% 1106 05-17-16
40 Omega Rafael Santos 45.9% 1130 05-17-16
41 P1 Pause 44.6% 1157 05-17-16
42 magnum12 42.4% 1204 05-17-16
43 VeritasDL 41.7% 1219 05-17-16
44 Auriman1 38.6% 1284 05-17-16
45 James_Bertolli 36.2% 1334 05-17-16
46 teamblackarms 34.7% 1366 05-17-16
47 Hunters13 34.0% 1380 05-17-16
48 FuzZerd 33.6% 1389 05-17-16
49 Drakodan 33.3% 1395 05-17-16
50 Psymar 32.7% 1406 05-17-16
51 Quartz 32.2% 1417 05-17-16
52 eggFL 32.1% 1419 05-17-16
53 Cyan Ryan 31.8% 1425 05-17-16
54 Jerzia 31.2% 1439 05-17-16
55 GerbilSoft 31.0% 1442 05-17-16
56 elecmouse101 30.6% 1450 05-17-16
57 Thorn 30.5% 1453 05-17-16
58 Webber3000 30.1% 1461 05-17-16
59 videogamemaster777 29.9% 1466 05-17-16
60 Mo Player Banned 28.6% 1493 05-17-16
61 Turbos 28.4% 1496 05-17-16
62 Termon 27.2% 1522 05-17-16
63 Dave Cramer 26.3% 1541 05-17-16
64 Flying Fox 25.8% 1551 05-17-16
65 buddychaos0415 25.2% 1563 05-17-16
66 nuckrieg 25.2% 1564 05-17-16
67 Shadow Jacky 24.0% 1588 05-17-16
68 Cream147 21.6% 1639 05-17-16
69 supersonicfan 21.5% 1641 05-17-16
70 MiStEr_ShAoLiN 21.1% 1649 05-17-16
71 NintenDan 21.0% 1652 05-17-16
71 thewaytodawnnn 21.0% 1652 05-17-16
73 itsPersonnal 20.6% 1661 05-17-16
73 Nimrod 20.6% 1661 05-17-16
75 The T 20.4% 1664 05-17-16
76 supersonic465 20.3% 1667 05-17-16
77 Cybrax 20.2% 1669 05-17-16
78 Aitamen 19.8% 1677 05-17-16
79 SonicWinDX 19.5% 1683 05-17-16
80 Cruizer 19.1% 1691 05-17-16
81 VMU Player Banned 17.8% 1719 05-17-16
82 Game_Complete 17.3% 1729 05-17-16
83 The Great Lord Mick 16.7% 1741 05-17-16
84 Questionguy555 16.1% 1755 05-17-16
85 GreatStar 16.0% 1757 05-17-16
86 Spinballwizard 15.4% 1768 05-17-16
87 Sondow 14.6% 1785 05-17-16
88 sonicandamy 14.2% 1794 05-17-16
89 Destroyer121121 14.0% 1798 05-17-16
90 GarnetPrincess 13.5% 1808 05-17-16
91 SonicAD 12.1% 1838 05-17-16
92 Don 11.4% 1852 05-17-16
93 Miles9999 11.2% 1857 05-17-16
94 Siavash Tazari 10.9% 1863 05-17-16
95 BigAL49 10.5% 1871 05-17-16
96 Cutiefox 10.4% 1874 05-17-16
97 Psyknux 10.2% 1878 05-17-16
98 Werey 9.8% 1886 05-17-16
99 knuckles_sonic8 9.7% 1888 05-17-16
100 joecoolgames 9.6% 1891 05-17-16
101 mauserman 9.2% 1899 05-17-16
102 EngiNerd 9.0% 1903 05-17-16
103 Sonic Singularity 8.7% 1908 05-17-16
104 dShadow 8.6% 1912 05-17-16
105 Hipertails12 8.4% 1916 05-17-16
106 Aiko 8.1% 1922 05-17-16
107 Shanekilz 8.0% 1923 05-17-16
108 Therio 7.6% 1932 05-17-16
109 Mastakirby 7.5% 1935 05-17-16
110 chainchumper 6.9% 1946 05-17-16
111 FocusSight64 6.8% 1948 05-17-16
111 TheChaosEmeraIds 6.8% 1948 05-17-16
113 sonic29887 6.7% 1950 05-17-16
114 Chao_Fan 6.7% 1951 05-17-16
115 HHNNBBHHN 6.1% 1964 05-17-16
116 djmat 6.0% 1966 05-17-16
116 tal39h 6.0% 1966 05-17-16
118 paulie9990 5.8% 1970 05-17-16
119 Sogeking 5.5% 1976 05-17-16
120 Brian_pso 5.0% 1986 05-17-16
120 SuperBlitzCraig 5.0% 1986 05-17-16
122 Chawkk 5.0% 1987 05-17-16
123 SilvertheAlmighty 4.6% 1995 05-17-16
124 MK 4.5% 1996 05-17-16
125 SpinDashMaster 4.5% 1997 05-17-16
126 MastaToken 4.2% 2004 05-17-16
127 Badlex727 3.8% 2011 05-17-16
128 Sonique Hedgehog 3.8% 2012 05-17-16
128 SpiritDragon1995 3.8% 2012 05-17-16
130 KinkyCadence 3.5% 2017 05-17-16
131 Mad Andy 3.4% 2019 05-17-16
132 PsyBorg 3.4% 2020 05-17-16
132 Wanamaker 3.4% 2020 05-17-16
134 FSSRandomvids 3.2% 2023 05-17-16
135 koinu93 3.0% 2029 05-17-16
135 Rolken 3.0% 2029 05-17-16
137 Xia 2.9% 2031 05-17-16
138 andres430 2.6% 2037 05-17-16
139 crazy1993 2.2% 2044 05-17-16
139 dabestgamer 2.2% 2044 05-17-16
141 shadowblast63 Player Banned 2.2% 2045 05-17-16
142 Illidan 2.1% 2047 05-17-16
143 Richied 2.0% 2049 05-17-16
144 DanielTheFalcon 1.8% 2053 05-17-16
145 gamer1245 1.8% 2054 05-17-16
145 Iwannabelink 1.8% 2054 05-17-16
147 oTaiIilLsS 1.4% 2062 05-17-16
148 soniccoloursunleashed 1.3% 2063 05-17-16
149 niscool 1.3% 2064 05-17-16
150 Redd 1.1% 2068 05-17-16
151 ieatatsonic 1.0% 2069 05-17-16
152 LinksDarkArrows 0.8% 2074 05-17-16
153 Lil_Dude 0.8% 2075 05-17-16
154 Cbwade15 0.4% 2082 05-17-16
155 neaolas 0.3% 2084 05-17-16
156 BlankTH 0.2% 2087 05-17-16
157 Heroes_Hater 0.1% 2088 05-17-16
158 S-MS32X-S 0.0% 2090 05-17-16
159 KaM Mark MaK 0.0% 2092 05-17-16
159 MegabombBlade 0.0% 2092 05-17-16

This page is using the New Data Table System. [FUTURE]

Game ID: 3 | Category ID: 6
Hits: 4,308 | Hits This Month: 28 | DB Calls: 24 | Mem Usage: 5.34 MB | Time: 0.20s | Printable

The Sonic Center v3.9
Copyright 2003-2011 by The Sonic Center Team.